Time;durP1;ratioP1;P1;durP2;ratioP2;P2;SDS_P1;SDS_P2;PMS_P1;PMS_P2;Temp;Humidity;BMP_temperature;BMP_pressure;BME280_temperature;BME280_humidity;BME280_pressure;Samples;Min_cycle;Max_cycle;Signal;HPM_P1;HPM_P2
2021/07/25 00:02:16;;;;;;;;;;;;;;;21.17;67.60;100529.28;5016438;28;1072;-74
2021/07/25 00:04:41;;;;;;;;;;;;;;;21.13;67.74;100526.97;5016636;28;1028;-74
2021/07/25 00:07:06;;;;;;;;;;;;;;;21.03;67.63;100512.75;5014905;28;1928;-75
2021/07/25 00:09:31;;;;;;;;;;;;;;;21.02;67.92;100510.22;5016503;28;776;-74
2021/07/25 00:11:56;;;;;;;;;;;;;;;21.08;67.67;100513.09;5016228;28;998;-74
2021/07/25 00:14:22;;;;;;;;;;;;;;;21.08;67.58;100514.97;5016445;28;969;-75
2021/07/25 00:16:47;;;;;;;;;;;;;;;21.06;68.01;100500.72;5016191;28;875;-75
2021/07/25 00:19:12;;;;;;;;;;;;;;;21.04;67.25;100510.91;4998874;28;2004;-76
2021/07/25 00:21:37;;;;;;;;;;;;;;;21.01;67.98;100509.38;4996510;28;827;-75
2021/07/25 00:24:02;;;;;;;;;;;;;;;20.93;67.68;100503.16;4996608;28;966;-75
2021/07/25 00:26:33;;;;;;;;;;;;;;;20.95;68.04;100506.53;5004430;28;1918;-75
2021/07/25 00:28:58;;;;;;;;;;;;;;;20.99;67.79;100505.16;5016159;28;1934;-74
2021/07/25 00:31:24;;;;;;;;;;;;;;;20.96;67.76;100500.13;5015911;28;1049;-74
2021/07/25 00:33:49;;;;;;;;;;;;;;;20.79;68.41;100505.56;5016338;28;802;-74
2021/07/25 00:36:14;;;;;;;;;;;;;;;20.78;68.28;100495.75;5014635;28;2070;-74
2021/07/25 00:38:39;;;;;;;;;;;;;;;20.78;68.35;100493.03;5015678;28;1898;-73
2021/07/25 00:41:06;;;;;;;;;;;;;;;20.75;69.16;100497.97;5015574;28;1068;-74
2021/07/25 00:43:31;;;;;;;;;;;;;;;20.80;68.11;100496.41;5016323;28;767;-74
2021/07/25 00:45:56;;;;;;;;;;;;;;;20.71;68.80;100488.50;5014380;28;1867;-74
2021/07/25 00:48:21;;;;;;;;;;;;;;;20.69;69.00;100487.81;4996045;28;803;-74
2021/07/25 00:50:46;;;;;;;;;;;;;;;20.62;69.20;100484.97;4995979;28;982;-74
2021/07/25 00:53:11;;;;;;;;;;;;;;;20.78;68.90;100487.63;4996169;28;994;-75
2021/07/25 00:55:37;;;;;;;;;;;;;;;20.82;68.62;100495.41;4995867;28;936;-75
2021/07/25 00:58:02;;;;;;;;;;;;;;;20.86;68.34;100489.47;4996349;28;1999;-75
2021/07/25 01:00:27;;;;;;;;;;;;;;;20.86;68.52;100483.19;5030638;28;986;-75
2021/07/25 01:02:52;;;;;;;;;;;;;;;20.94;67.74;100478.63;5015770;28;1045;-74
2021/07/25 01:05:17;;;;;;;;;;;;;;;20.98;67.56;100477.22;5014561;28;894;-74
2021/07/25 01:07:42;;;;;;;;;;;;;;;20.79;69.05;100477.63;5015230;28;886;-74
2021/07/25 01:10:07;;;;;;;;;;;;;;;20.83;67.75;100484.38;5012040;28;1843;-73
2021/07/25 01:12:32;;;;;;;;;;;;;;;20.93;68.30;100479.63;4995749;28;998;-73
2021/07/25 01:14:57;;;;;;;;;;;;;;;20.92;67.86;100477.94;4996082;28;962;-73
2021/07/25 01:17:22;;;;;;;;;;;;;;;20.98;68.11;100479.94;5027093;28;1228;-74
2021/07/25 01:19:47;;;;;;;;;;;;;;;21.00;68.23;100488.72;4995571;28;1894;-74
2021/07/25 01:22:12;;;;;;;;;;;;;;;21.01;68.20;100484.16;5031844;28;1896;-73
2021/07/25 01:24:37;;;;;;;;;;;;;;;21.01;68.09;100484.16;5030311;28;910;-74
2021/07/25 01:27:03;;;;;;;;;;;;;;;21.01;67.53;100479.56;5015179;28;760;-73
2021/07/25 01:29:28;;;;;;;;;;;;;;;21.01;67.64;100479.56;5028690;28;1999;-73
2021/07/25 01:31:53;;;;;;;;;;;;;;;20.99;67.88;100472.63;5006426;28;1996;-74
2021/07/25 01:34:18;;;;;;;;;;;;;;;21.00;67.48;100475.19;4995520;28;824;-75
2021/07/25 01:36:43;;;;;;;;;;;;;;;21.02;67.60;100472.28;4995624;28;1098;-72
2021/07/25 01:39:08;;;;;;;;;;;;;;;21.01;67.72;100468.75;4995329;28;1890;-72
2021/07/25 01:41:33;;;;;;;;;;;;;;;21.01;68.21;100468.75;4995132;28;1852;-72
2021/07/25 01:43:58;;;;;;;;;;;;;;;21.02;67.84;100465.00;4995457;28;642;-72
2021/07/25 01:46:23;;;;;;;;;;;;;;;20.98;68.15;100462.81;5027134;28;824;-73
2021/07/25 01:48:48;;;;;;;;;;;;;;;20.95;67.58;100471.34;5004783;28;2010;-75
2021/07/25 01:51:13;;;;;;;;;;;;;;;20.94;68.34;100475.91;5015050;28;1002;-74
2021/07/25 01:53:38;;;;;;;;;;;;;;;20.98;68.31;100473.66;5015286;28;890;-73
2021/07/25 01:56:04;;;;;;;;;;;;;;;20.97;67.98;100477.38;5014788;28;890;-73
2021/07/25 01:58:29;;;;;;;;;;;;;;;20.92;67.47;100474.38;5007302;28;1981;-75
2021/07/25 02:00:54;;;;;;;;;;;;;;;20.93;68.09;100476.91;4995322;28;1065;-73
2021/07/25 02:03:19;;;;;;;;;;;;;;;20.92;68.21;100474.38;4995356;28;903;-73
2021/07/25 02:05:44;;;;;;;;;;;;;;;20.93;68.20;100476.91;4994972;28;828;-74
2021/07/25 02:08:09;;;;;;;;;;;;;;;20.95;67.39;100483.00;4995263;28;998;-74
2021/07/25 02:10:34;;;;;;;;;;;;;;;20.98;68.02;100479.94;5003765;28;1889;-75
2021/07/25 02:12:59;;;;;;;;;;;;;;;20.90;67.58;100479.13;5014434;28;792;-74
2021/07/25 02:15:24;;;;;;;;;;;;;;;20.92;68.16;100471.69;5014487;28;807;-73
2021/07/25 02:17:49;;;;;;;;;;;;;;;20.93;68.14;100462.53;5018141;28;784;-73
2021/07/25 02:20:14;;;;;;;;;;;;;;;20.77;68.28;100472.41;5018505;28;1890;-73
2021/07/25 02:22:40;;;;;;;;;;;;;;;20.80;68.11;100472.03;5016586;28;1947;-73
2021/07/25 02:25:05;;;;;;;;;;;;;;;20.81;67.97;100467.47;5018310;28;847;-73
2021/07/25 02:27:30;;;;;;;;;;;;;;;20.77;68.23;100463.44;5018210;28;989;-73
2021/07/25 02:29:55;;;;;;;;;;;;;;;20.78;68.24;100467.84;5016632;28;1939;-73
2021/07/25 02:32:20;;;;;;;;;;;;;;;20.68;68.22;100453.63;4998660;28;1947;-74
2021/07/25 02:34:45;;;;;;;;;;;;;;;20.51;69.49;100458.25;4998840;28;1006;-75
2021/07/25 02:37:11;;;;;;;;;;;;;;;20.43;69.87;100456.41;5030074;28;1552;-74
2021/07/25 02:39:36;;;;;;;;;;;;;;;20.55;68.73;100439.81;4998773;28;1902;-73
2021/07/25 02:42:02;;;;;;;;;;;;;;;20.57;68.69;100443.19;5016315;28;1933;-74
2021/07/25 02:44:27;;;;;;;;;;;;;;;20.51;68.84;100443.88;5007918;28;1861;-74
2021/07/25 02:46:52;;;;;;;;;;;;;;;20.45;69.63;100446.25;4998564;28;923;-74
2021/07/25 02:49:17;;;;;;;;;;;;;;;20.60;68.72;100445.56;4998243;28;871;-75
2021/07/25 02:51:42;;;;;;;;;;;;;;;20.69;68.09;100439.09;4998721;28;1937;-74
2021/07/25 02:54:07;;;;;;;;;;;;;;;20.69;68.18;100439.94;5017874;28;1065;-74
2021/07/25 02:56:32;;;;;;;;;;;;;;;20.76;68.76;100448.22;5017643;28;981;-73
2021/07/25 02:58:57;;;;;;;;;;;;;;;20.69;68.58;100444.50;5032536;28;1973;-73
2021/07/25 03:01:22;;;;;;;;;;;;;;;20.64;68.67;100436.03;5002343;28;1818;-72
2021/07/25 03:03:47;;;;;;;;;;;;;;;20.56;68.67;100430.69;4998058;28;859;-73
2021/07/25 03:06:12;;;;;;;;;;;;;;;20.62;68.46;100432.66;4998171;28;784;-73
2021/07/25 03:08:38;;;;;;;;;;;;;;;20.53;68.94;100429.16;4997876;28;907;-75
2021/07/25 03:11:03;;;;;;;;;;;;;;;20.63;68.60;100423.53;5010043;28;1687;-74
2021/07/25 03:13:28;;;;;;;;;;;;;;;20.58;68.72;100420.53;5017372;28;862;-74
2021/07/25 03:15:53;;;;;;;;;;;;;;;20.56;68.51;100420.69;5017347;28;855;-74
2021/07/25 03:18:18;;;;;;;;;;;;;;;20.64;68.64;100415.22;5017515;28;1961;-74
2021/07/25 03:20:43;;;;;;;;;;;;;;;20.68;68.62;100418.44;5005027;28;1839;-73
2021/07/25 03:23:08;;;;;;;;;;;;;;;20.75;68.59;100419.44;4997743;28;902;-73
2021/07/25 03:25:33;;;;;;;;;;;;;;;20.79;67.99;100410.75;4997556;28;816;-73
2021/07/25 03:27:58;;;;;;;;;;;;;;;20.76;68.15;100410.28;4998588;28;1880;-73
2021/07/25 03:30:23;;;;;;;;;;;;;;;20.75;68.30;100412.16;5032653;28;712;-73
2021/07/25 03:32:48;;;;;;;;;;;;;;;20.78;68.52;100416.38;5016959;28;993;-73
2021/07/25 03:35:13;;;;;;;;;;;;;;;20.78;68.41;100416.38;5032355;28;914;-73
2021/07/25 03:37:44;;;;;;;;;;;;;;;20.77;68.63;100410.13;5032249;28;1368;-73
2021/07/25 03:40:09;;;;;;;;;;;;;;;20.78;68.47;100406.38;5015683;28;1898;-73
2021/07/25 03:42:34;;;;;;;;;;;;;;;20.80;68.47;100407.03;5017030;28;779;-73
2021/07/25 03:44:59;;;;;;;;;;;;;;;20.80;68.18;100408.91;5016751;28;789;-73
2021/07/25 03:47:24;;;;;;;;;;;;;;;20.81;68.50;100410.59;5016894;28;1247;-73
2021/07/25 03:49:49;;;;;;;;;;;;;;;20.81;68.49;100416.00;5016658;28;1073;-73
2021/07/25 03:52:14;;;;;;;;;;;;;;;20.82;67.55;100430.41;5016329;28;1691;-72
2021/07/25 03:54:42;;;;;;;;;;;;;;;20.82;68.11;100423.13;5016605;28;859;-73
2021/07/25 03:57:07;;;;;;;;;;;;;;;20.81;67.70;100432.25;5016783;28;796;-73
2021/07/25 03:59:32;;;;;;;;;;;;;;;20.79;68.04;100429.72;5015407;28;1970;-73
2021/07/25 04:01:57;;;;;;;;;;;;;;;20.74;68.21;100437.56;5016784;28;1026;-74
2021/07/25 04:04:22;;;;;;;;;;;;;;;20.70;67.80;100443.47;5016939;28;870;-75
2021/07/25 04:06:47;;;;;;;;;;;;;;;20.72;67.64;100438.75;5016485;28;846;-75
2021/07/25 04:09:12;;;;;;;;;;;;;;;20.67;67.96;100433.84;5004135;28;1849;-75
2021/07/25 04:11:37;;;;;;;;;;;;;;;20.69;68.37;100433.66;4996994;28;1041;-75
2021/07/25 04:14:03;;;;;;;;;;;;;;;20.74;68.14;100437.56;4996638;28;930;-74
2021/07/25 04:16:28;;;;;;;;;;;;;;;20.66;68.05;100440.28;5028245;28;847;-75
2021/07/25 04:18:53;;;;;;;;;;;;;;;20.69;68.53;100439.09;4996614;28;1986;-74
2021/07/25 04:21:18;;;;;;;;;;;;;;;20.62;68.16;100438.94;5041567;28;1964;-74
2021/07/25 04:23:43;;;;;;;;;;;;;;;20.47;68.50;100451.50;5031302;28;1439;-74
2021/07/25 04:26:08;;;;;;;;;;;;;;;20.57;68.45;100449.47;5016007;28;1077;-74
2021/07/25 04:28:33;;;;;;;;;;;;;;;20.58;68.31;100445.72;5015971;28;1077;-73
2021/07/25 04:30:58;;;;;;;;;;;;;;;20.68;67.90;100442.81;5016289;28;827;-74
2021/07/25 04:33:23;;;;;;;;;;;;;;;20.63;68.15;100434.34;5001186;28;2157;-74
2021/07/25 04:35:49;;;;;;;;;;;;;;;20.57;68.13;100429.66;4996610;28;800;-74
2021/07/25 04:38:14;;;;;;;;;;;;;;;20.37;69.53;100434.63;4996111;28;1894;-73
2021/07/25 04:40:40;;;;;;;;;;;;;;;20.43;68.44;100432.03;5001473;28;1904;-73
2021/07/25 04:43:05;;;;;;;;;;;;;;;20.51;68.86;100433.91;5015612;28;1865;-74
2021/07/25 04:45:30;;;;;;;;;;;;;;;20.57;68.14;100440.50;5015714;28;1038;-74
2021/07/25 04:47:55;;;;;;;;;;;;;;;20.55;68.35;100437.09;5015941;28;978;-74
2021/07/25 04:50:20;;;;;;;;;;;;;;;20.58;68.13;100440.31;5012804;28;1863;-76
2021/07/25 04:52:45;;;;;;;;;;;;;;;20.61;67.62;100436.38;4996192;28;760;-76
2021/07/25 04:55:10;;;;;;;;;;;;;;;20.49;67.84;100443.22;4996155;28;812;-75
2021/07/25 04:57:36;;;;;;;;;;;;;;;20.39;68.38;100455.09;4995717;28;974;-73
2021/07/25 05:00:01;;;;;;;;;;;;;;;20.44;68.16;100452.69;4996810;28;1972;-74
2021/07/25 05:02:26;;;;;;;;;;;;;;;20.39;68.38;100444.25;4995782;28;844;-74
2021/07/25 05:04:51;;;;;;;;;;;;;;;20.54;68.47;100435.41;4996156;28;847;-74
2021/07/25 05:07:16;;;;;;;;;;;;;;;20.55;67.79;100447.94;4996049;28;843;-74
2021/07/25 05:09:41;;;;;;;;;;;;;;;20.45;67.88;100435.44;4995725;28;1011;-73
2021/07/25 05:12:10;;;;;;;;;;;;;;;20.58;68.45;100445.72;5013945;28;1846;-74
2021/07/25 05:14:35;;;;;;;;;;;;;;;20.71;68.19;100450.59;5015231;28;779;-75
2021/07/25 05:17:00;;;;;;;;;;;;;;;20.76;67.39;100448.22;5015380;28;1192;-74
2021/07/25 05:19:25;;;;;;;;;;;;;;;20.75;68.21;100457.34;5015443;28;1890;-73
2021/07/25 05:21:50;;;;;;;;;;;;;;;20.79;66.92;100462.22;5013672;28;1756;-73
2021/07/25 05:24:15;;;;;;;;;;;;;;;20.74;67.15;100463.78;4995586;28;862;-74
2021/07/25 05:26:40;;;;;;;;;;;;;;;20.81;67.92;100464.75;4995378;28;868;-73
2021/07/25 05:29:06;;;;;;;;;;;;;;;20.82;68.32;100466.44;5027219;28;2374;-73
2021/07/25 05:31:31;;;;;;;;;;;;;;;20.77;67.59;100467.00;4995609;28;1023;-74
2021/07/25 05:33:56;;;;;;;;;;;;;;;20.81;67.85;100459.34;4997787;28;2006;-75
2021/07/25 05:36:21;;;;;;;;;;;;;;;20.81;68.04;100464.75;5015024;28;1214;-74
2021/07/25 05:38:46;;;;;;;;;;;;;;;20.75;67.68;100471.75;5015074;28;1898;-75
2021/07/25 05:41:11;;;;;;;;;;;;;;;20.57;67.81;100472.97;5014932;28;914;-73
2021/07/25 05:43:36;;;;;;;;;;;;;;;20.53;67.92;100482.47;5012824;28;2824;-74
2021/07/25 05:46:02;;;;;;;;;;;;;;;20.45;68.61;100480.59;5011771;28;1989;-74
2021/07/25 05:48:27;;;;;;;;;;;;;;;20.61;67.86;100475.13;5013734;28;1499;-74
2021/07/25 05:50:52;;;;;;;;;;;;;;;20.72;67.97;100477.50;5045870;28;1413;-73
2021/07/25 05:53:17;;;;;;;;;;;;;;;20.63;68.06;100481.22;5017676;28;1553;-74
2021/07/25 05:55:42;;;;;;;;;;;;;;;20.48;67.84;100476.72;5017683;28;1591;-73
2021/07/25 05:58:08;;;;;;;;;;;;;;;20.43;68.36;100469.09;5017540;28;1914;-73
2021/07/25 06:00:33;;;;;;;;;;;;;;;20.51;67.82;100466.38;5017839;28;1339;-73
2021/07/25 06:02:59;;;;;;;;;;;;;;;20.41;67.80;100466.59;5017384;28;1517;-74
2021/07/25 06:05:24;;;;;;;;;;;;;;;20.44;67.60;100458.09;5016649;28;1490;-73
2021/07/25 06:07:49;;;;;;;;;;;;;;;20.59;67.47;100460.97;5016789;28;1367;-73
2021/07/25 06:10:14;;;;;;;;;;;;;;;20.75;67.64;100471.75;5016114;28;1395;-73
2021/07/25 06:12:39;;;;;;;;;;;;;;;20.85;67.48;100468.81;5016879;28;1547;-73
2021/07/25 06:15:04;;;;;;;;;;;;;;;20.90;67.36;100461.00;5017628;28;1429;-74
2021/07/25 06:17:29;;;;;;;;;;;;;;;20.74;67.27;100458.38;5016367;28;1316;-74
2021/07/25 06:19:54;;;;;;;;;;;;;;;20.82;66.77;100468.31;5017991;28;1910;-74
2021/07/25 06:22:20;;;;;;;;;;;;;;;20.88;66.68;100473.88;5015084;28;1536;-72
2021/07/25 06:24:45;;;;;;;;;;;;;;;20.72;67.62;100476.66;5048766;28;1772;-73
2021/07/25 06:27:10;;;;;;;;;;;;;;;20.48;67.65;100466.72;5021178;28;1668;-73
2021/07/25 06:29:35;;;;;;;;;;;;;;;20.52;66.96;100464.53;5018652;28;2078;-73
2021/07/25 06:32:00;;;;;;;;;;;;;;;20.63;67.39;100473.09;5017880;28;1736;-73
2021/07/25 06:34:25;;;;;;;;;;;;;;;20.72;66.62;100468.53;5014380;28;1668;-73
2021/07/25 06:36:50;;;;;;;;;;;;;;;20.59;67.36;100471.78;5017653;28;1800;-73
2021/07/25 06:39:15;;;;;;;;;;;;;;;20.71;66.49;100464.97;5016554;28;2119;-73
2021/07/25 06:41:40;;;;;;;;;;;;;;;20.81;66.44;100470.19;5012053;28;1966;-73
2021/07/25 06:44:05;;;;;;;;;;;;;;;20.79;66.55;100466.78;5017950;28;1689;-74
2021/07/25 06:46:30;;;;;;;;;;;;;;;20.68;66.75;100475.31;5018133;28;1902;-73
2021/07/25 06:48:55;;;;;;;;;;;;;;;20.72;66.77;100469.38;5018126;28;1614;-73
2021/07/25 06:51:20;;;;;;;;;;;;;;;20.80;66.28;100466.63;5009905;28;2012;-73
2021/07/25 06:53:46;;;;;;;;;;;;;;;20.63;66.35;100470.41;5016592;28;1550;-73
2021/07/25 06:56:12;;;;;;;;;;;;;;;20.79;65.90;100467.63;5016097;28;1786;-73
2021/07/25 06:58:38;;;;;;;;;;;;;;;20.91;66.27;100470.84;5014367;28;1910;-73
2021/07/25 07:01:04;;;;;;;;;;;;;;;20.84;66.25;100472.53;5013929;28;1791;-73
2021/07/25 07:03:29;;;;;;;;;;;;;;;20.99;65.31;100470.78;5014859;28;1701;-73
2021/07/25 07:05:54;;;;;;;;;;;;;;;20.99;66.15;100472.63;5015852;28;2087;-74
2021/07/25 07:08:19;;;;;;;;;;;;;;;21.01;66.43;100481.44;5004938;28;1707;-73
2021/07/25 07:10:44;;;;;;;;;;;;;;;20.92;66.11;100475.22;5017416;28;1723;-73
2021/07/25 07:13:09;;;;;;;;;;;;;;;20.90;66.01;100471.00;5015960;28;2019;-73
2021/07/25 07:15:34;;;;;;;;;;;;;;;20.82;66.72;100474.56;5016827;28;1545;-73
2021/07/25 07:17:59;;;;;;;;;;;;;;;20.96;66.00;100467.59;5017236;28;1771;-73
2021/07/25 07:20:24;;;;;;;;;;;;;;;21.14;66.34;100474.44;5019838;28;1965;-74
2021/07/25 07:22:50;;;;;;;;;;;;;;;20.96;66.04;100479.25;5017487;28;1468;-74
2021/07/25 07:25:15;;;;;;;;;;;;;;;20.97;65.90;100480.09;5017202;28;1521;-74
2021/07/25 07:27:40;;;;;;;;;;;;;;;21.06;66.32;100485.31;5016986;28;1529;-73
2021/07/25 07:30:05;;;;;;;;;;;;;;;21.20;66.51;100482.91;5016487;28;1911;-70
2021/07/25 07:32:30;;;;;;;;;;;;;;;21.28;66.45;100482.88;5018098;28;1655;-70
2021/07/25 07:34:55;;;;;;;;;;;;;;;21.33;66.22;100485.88;5015966;28;1635;-70
2021/07/25 07:37:20;;;;;;;;;;;;;;;21.13;66.80;100490.88;5016753;28;1701;-71
2021/07/25 07:39:45;;;;;;;;;;;;;;;20.98;66.74;100482.63;5012866;28;1964;-72
2021/07/25 07:42:11;;;;;;;;;;;;;;;21.01;66.52;100487.72;5016728;28;1613;-71
2021/07/25 07:44:36;;;;;;;;;;;;;;;21.05;67.28;100482.78;5015010;28;1557;-69
2021/07/25 07:47:01;;;;;;;;;;;;;;;21.02;67.17;100488.56;5011181;28;1319;-69
2021/07/25 07:49:26;;;;;;;;;;;;;;;21.07;67.59;100491.59;5016079;28;1828;-69
2021/07/25 07:51:51;;;;;;;;;;;;;;;21.20;68.35;100486.47;5015995;28;1768;-69
2021/07/25 07:54:16;;;;;;;;;;;;;;;21.32;67.99;100489.63;5016063;28;1422;-69
2021/07/25 07:56:41;;;;;;;;;;;;;;;21.36;68.54;100494.50;5016214;28;902;-69
2021/07/25 07:59:06;;;;;;;;;;;;;;;21.30;67.33;100491.69;5015485;28;1918;-69
2021/07/25 08:01:31;;;;;;;;;;;;;;;21.23;67.77;100490.69;5016201;28;1991;-69
2021/07/25 08:03:56;;;;;;;;;;;;;;;21.17;67.43;100497.63;5016443;28;1001;-69
2021/07/25 08:06:21;;;;;;;;;;;;;;;21.07;67.41;100500.56;5015984;28;930;-69
2021/07/25 08:08:46;;;;;;;;;;;;;;;21.04;67.14;100492.78;5029440;28;1938;-69
2021/07/25 08:11:12;;;;;;;;;;;;;;;21.12;66.80;100495.47;4996258;28;804;-71
2021/07/25 08:13:37;;;;;;;;;;;;;;;21.13;66.13;100497.16;4995648;28;875;-69
2021/07/25 08:16:02;;;;;;;;;;;;;;;21.15;66.81;100500.50;4995919;28;1068;-69
2021/07/25 08:18:27;;;;;;;;;;;;;;;21.14;67.00;100487.13;4997213;28;1952;-69
2021/07/25 08:20:52;;;;;;;;;;;;;;;21.09;66.89;100490.41;5015591;28;812;-69
2021/07/25 08:23:17;;;;;;;;;;;;;;;21.06;66.59;100495.31;5015634;28;799;-69
2021/07/25 08:25:42;;;;;;;;;;;;;;;21.08;66.48;100496.00;5016529;28;910;-69
2021/07/25 08:28:07;;;;;;;;;;;;;;;21.11;66.35;100498.34;5015931;28;1238;-70
2021/07/25 08:30:32;;;;;;;;;;;;;;;21.22;66.70;100505.25;4997839;28;2026;-69
2021/07/25 08:32:57;;;;;;;;;;;;;;;21.34;66.78;100496.56;4996412;28;1034;-69
2021/07/25 08:35:22;;;;;;;;;;;;;;;21.40;66.38;100490.44;5027948;28;1013;-69
2021/07/25 08:37:47;;;;;;;;;;;;;;;21.31;66.34;100498.78;4996313;28;907;-69
2021/07/25 08:40:13;;;;;;;;;;;;;;;21.38;66.53;100503.31;5013779;28;1956;-69
2021/07/25 08:42:38;;;;;;;;;;;;;;;21.49;66.42;100502.09;5015792;28;875;-69
2021/07/25 08:45:03;;;;;;;;;;;;;;;21.51;65.66;100502.72;5031193;28;1241;-69
2021/07/25 08:47:36;;;;;;;;;;;;;;;21.56;66.16;100500.31;5015784;28;910;-69
2021/07/25 08:50:01;;;;;;;;;;;;;;;21.53;65.26;100497.97;4999659;28;1966;-69
2021/07/25 08:52:26;;;;;;;;;;;;;;;21.52;64.89;100509.84;4995986;28;855;-69
2021/07/25 08:54:51;;;;;;;;;;;;;;;21.51;64.90;100510.00;4996078;28;788;-70
2021/07/25 08:57:19;;;;;;;;;;;;;;;21.51;65.16;100505.44;4995823;28;791;-69
2021/07/25 08:59:44;;;;;;;;;;;;;;;21.56;65.26;100523.88;5011403;28;1971;-69
2021/07/25 09:02:09;;;;;;;;;;;;;;;21.52;65.02;100512.53;5030981;28;993;-69
2021/07/25 09:04:34;;;;;;;;;;;;;;;21.52;64.68;100517.13;5015432;28;965;-69
2021/07/25 09:07:02;;;;;;;;;;;;;;;21.55;64.77;100514.91;5030983;28;2641;-69
2021/07/25 09:09:27;;;;;;;;;;;;;;;21.54;64.67;100515.94;5002227;28;1879;-69
2021/07/25 09:11:52;;;;;;;;;;;;;;;21.47;64.97;100520.41;4995854;28;2003;-69
2021/07/25 09:14:17;;;;;;;;;;;;;;;21.47;65.25;100523.94;4995867;28;752;-70
2021/07/25 09:16:42;;;;;;;;;;;;;;;21.51;65.23;100523.56;4995956;28;846;-69
2021/07/25 09:19:07;;;;;;;;;;;;;;;21.54;65.38;100517.78;5008591;28;2027;-69
2021/07/25 09:21:32;;;;;;;;;;;;;;;21.61;65.22;100516.06;5015472;28;1069;-69
2021/07/25 09:23:57;;;;;;;;;;;;;;;21.63;65.24;100525.72;5015069;28;899;-69
2021/07/25 09:26:22;;;;;;;;;;;;;;;21.58;65.22;100519.97;5029452;28;2423;-69
2021/07/25 09:28:47;;;;;;;;;;;;;;;21.56;65.63;100519.31;5004693;28;1802;-70
2021/07/25 09:31:12;;;;;;;;;;;;;;;21.57;65.33;100522.88;4995846;28;926;-69
2021/07/25 09:33:38;;;;;;;;;;;;;;;21.57;65.59;100512.88;5026942;28;1240;-69
2021/07/25 09:36:03;;;;;;;;;;;;;;;21.56;65.43;100511.19;4995973;28;1902;-70
2021/07/25 09:38:28;;;;;;;;;;;;;;;21.55;65.45;100514.06;5015073;28;1902;-69
2021/07/25 09:40:53;;;;;;;;;;;;;;;21.56;65.87;100518.47;5015266;28;830;-69
2021/07/25 09:43:24;;;;;;;;;;;;;;;21.60;65.42;100509.81;5014955;28;863;-69
2021/07/25 09:45:55;;;;;;;;;;;;;;;21.64;65.08;100510.28;5015389;28;822;-69
2021/07/25 09:48:20;;;;;;;;;;;;;;;21.66;65.61;100511.81;4995618;28;1753;-69
2021/07/25 09:50:45;;;;;;;;;;;;;;;21.70;65.18;100518.53;4995440;28;834;-69
2021/07/25 09:53:10;;;;;;;;;;;;;;;21.74;65.27;100511.72;4995358;28;927;-69
2021/07/25 09:55:35;;;;;;;;;;;;;;;21.74;65.28;100511.72;4995577;28;812;-69
2021/07/25 09:58:00;;;;;;;;;;;;;;;21.74;65.03;100514.44;4994765;28;1473;-69
2021/07/25 10:00:25;;;;;;;;;;;;;;;21.73;65.22;100520.91;5012543;28;2022;-69
2021/07/25 10:02:51;;;;;;;;;;;;;;;21.74;65.30;100517.16;5030142;28;1267;-69
2021/07/25 10:05:16;;;;;;;;;;;;;;;21.75;65.15;100507.16;5014873;28;815;-69
2021/07/25 10:07:41;;;;;;;;;;;;;;;21.77;65.15;100505.94;5014788;28;788;-69
2021/07/25 10:10:06;;;;;;;;;;;;;;;21.77;65.06;100514.09;5014695;28;796;-69
2021/07/25 10:12:31;;;;;;;;;;;;;;;21.77;65.00;100505.94;4995495;28;2164;-70
2021/07/25 10:14:56;;;;;;;;;;;;;;;21.76;65.21;100508.84;5026683;28;1318;-69
2021/07/25 10:17:21;;;;;;;;;;;;;;;21.77;65.27;100505.94;4995370;28;832;-69
2021/07/25 10:19:46;;;;;;;;;;;;;;;21.77;65.25;100499.69;4994943;28;1911;-69
2021/07/25 10:22:11;;;;;;;;;;;;;;;21.74;64.70;100503.59;4995133;28;966;-69
2021/07/25 10:24:36;;;;;;;;;;;;;;;21.71;64.58;100500.41;5011897;28;1925;-69
2021/07/25 10:27:01;;;;;;;;;;;;;;;21.69;64.69;100500.56;5029574;28;1673;-69
2021/07/25 10:29:27;;;;;;;;;;;;;;;21.70;64.12;100499.53;5029830;28;1749;-69
2021/07/25 10:31:52;;;;;;;;;;;;;;;21.65;64.26;100496.56;5014815;28;846;-69
2021/07/25 10:34:17;;;;;;;;;;;;;;;21.65;64.10;100504.69;5014926;28;843;-69
2021/07/25 10:36:42;;;;;;;;;;;;;;;21.67;64.18;100509.94;4997658;28;2044;-69
2021/07/25 10:39:07;;;;;;;;;;;;;;;21.68;64.13;100500.75;4998563;28;1977;-69
2021/07/25 10:41:32;;;;;;;;;;;;;;;21.67;64.46;100505.38;4998473;28;930;-69
2021/07/25 10:43:57;;;;;;;;;;;;;;;21.64;64.59;100494.03;4998423;28;910;-69
2021/07/25 10:46:22;;;;;;;;;;;;;;;21.64;64.52;100505.72;4998861;28;1839;-70
2021/07/25 10:48:47;;;;;;;;;;;;;;;21.66;64.74;100509.09;5017449;28;1829;-69
2021/07/25 10:51:12;;;;;;;;;;;;;;;21.66;64.71;100502.81;5018255;28;1778;-69
2021/07/25 10:53:37;;;;;;;;;;;;;;;21.69;64.65;100514.13;5018028;28;902;-69
2021/07/25 10:56:03;;;;;;;;;;;;;;;21.70;65.18;100501.41;5018073;28;898;-70
2021/07/25 10:58:28;;;;;;;;;;;;;;;21.72;64.92;100500.22;4998688;28;2001;-69
2021/07/25 11:00:53;;;;;;;;;;;;;;;21.75;65.28;100502.56;4998426;28;1010;-69
2021/07/25 11:03:18;;;;;;;;;;;;;;;21.76;65.04;100501.56;4997947;28;816;-69
2021/07/25 11:05:43;;;;;;;;;;;;;;;21.75;65.21;100507.16;5029644;28;998;-69
2021/07/25 11:08:08;;;;;;;;;;;;;;;21.76;65.34;100504.25;5045203;28;1710;-69
2021/07/25 11:10:33;;;;;;;;;;;;;;;21.78;65.32;100504.94;5017756;28;807;-69
2021/07/25 11:12:58;;;;;;;;;;;;;;;21.83;65.10;100497.09;5016950;28;788;-69
2021/07/25 11:15:23;;;;;;;;;;;;;;;21.88;65.17;100510.09;5017281;28;926;-69
2021/07/25 11:17:48;;;;;;;;;;;;;;;21.87;65.11;100499.44;5017615;28;902;-69
2021/07/25 11:20:14;;;;;;;;;;;;;;;21.90;65.15;100504.50;5009973;28;1917;-69
2021/07/25 11:22:39;;;;;;;;;;;;;;;21.91;65.14;100508.91;5014264;28;1516;-69
2021/07/25 11:25:04;;;;;;;;;;;;;;;21.95;65.00;100500.22;5016631;28;1371;-69
2021/07/25 11:27:29;;;;;;;;;;;;;;;21.99;64.88;100501.56;5015939;28;1347;-69
2021/07/25 11:29:54;;;;;;;;;;;;;;;21.99;65.17;100495.28;5015575;28;1434;-70
2021/07/25 11:32:19;;;;;;;;;;;;;;;21.99;65.45;100492.56;5015997;28;1671;-69
2021/07/25 11:34:45;;;;;;;;;;;;;;;21.95;65.73;100494.81;5016388;28;1425;-69
2021/07/25 11:37:13;;;;;;;;;;;;;;;21.91;65.85;100493.47;5016532;28;1438;-69
2021/07/25 11:39:38;;;;;;;;;;;;;;;21.91;66.33;100504.31;5013184;28;1898;-69
2021/07/25 11:42:03;;;;;;;;;;;;;;;21.90;66.43;100509.94;5016108;28;1507;-69
2021/07/25 11:44:29;;;;;;;;;;;;;;;21.90;66.56;100509.94;5016411;28;1328;-69
2021/07/25 11:46:54;;;;;;;;;;;;;;;21.92;66.15;100516.00;5017319;28;828;-69
2021/07/25 11:49:19;;;;;;;;;;;;;;;21.95;65.65;100515.66;5014773;28;1714;-69
2021/07/25 11:51:44;;;;;;;;;;;;;;;21.95;65.70;100515.66;5016916;28;1286;-69
2021/07/25 11:54:10;;;;;;;;;;;;;;;21.93;65.73;100517.72;5015410;28;1318;-69
2021/07/25 11:56:35;;;;;;;;;;;;;;;21.92;66.32;100530.44;5014958;28;1341;-69
2021/07/25 11:59:00;;;;;;;;;;;;;;;21.92;66.64;100529.59;5047497;28;1910;-70
2021/07/25 12:01:25;;;;;;;;;;;;;;;21.94;66.24;100544.66;5016399;28;1361;-69
2021/07/25 12:03:50;;;;;;;;;;;;;;;21.92;67.09;100540.44;5013614;28;2871;-69
2021/07/25 12:06:15;;;;;;;;;;;;;;;21.91;67.64;100542.31;5015325;28;1739;-69
2021/07/25 12:08:40;;;;;;;;;;;;;;;21.90;67.79;100540.63;5013750;28;1866;-69
2021/07/25 12:11:05;;;;;;;;;;;;;;;21.88;68.21;100531.81;5016532;28;1972;-69
2021/07/25 12:13:30;;;;;;;;;;;;;;;21.88;67.94;100542.66;5015781;28;1222;-69
2021/07/25 12:15:55;;;;;;;;;;;;;;;21.90;68.33;100534.34;5015640;28;1583;-70
2021/07/25 12:18:20;;;;;;;;;;;;;;;21.92;68.21;100535.00;5005998;28;1989;-70
2021/07/25 12:20:46;;;;;;;;;;;;;;;21.91;67.69;100539.59;5015793;28;1718;-71
2021/07/25 12:23:11;;;;;;;;;;;;;;;21.95;67.61;100543.63;5015284;28;1335;-71
2021/07/25 12:25:36;;;;;;;;;;;;;;;21.93;68.05;100550.28;5013179;28;1499;-69
2021/07/25 12:28:01;;;;;;;;;;;;;;;21.92;68.03;100545.88;5015754;28;1413;-72
2021/07/25 12:30:26;;;;;;;;;;;;;;;21.88;67.92;100545.38;5015455;28;1551;-76
2021/07/25 12:32:51;;;;;;;;;;;;;;;21.89;67.82;100543.50;5047815;28;2090;-73
2021/07/25 12:35:16;;;;;;;;;;;;;;;21.90;68.50;100532.47;5046012;28;1756;-74
2021/07/25 12:37:42;;;;;;;;;;;;;;;21.91;68.36;100539.59;5007446;28;1309;-72
2021/07/25 12:40:07;;;;;;;;;;;;;;;21.91;68.03;100536.03;5016720;28;1934;-74